This is the latest recevied weather packets stored in our database for station/object W5HKR. If no packets are shown the sender has not sent any weather packets the latest 10 day(s).
| Time | Temp. | Humidity | Pressure | Rain* | Wind** | Luminosity | Snow |
|---|---|---|---|---|---|---|---|
| 1777849080 | 18.33° C | 91% | 990.6 hPa | 0 mm | - | - | - |
| 1777848810 | 18.33° C | 91% | 990.6 hPa | 0 mm | - | - | - |
| 1777848510 | 26.67° C | 37% | 988.8 hPa | 0 mm | - | - | - |
| 1777848212 | 26.67° C | 36% | 988.8 hPa | 0 mm | - | - | - |
| 1777848001 | 26.67° C | 40% | 988.8 hPa | 0 mm | - | - | - |
| 1777847910 | 18.33° C | 91% | 990.6 hPa | 0 mm | - | - | - |
| 1777847612 | 18.33° C | 91% | 990.6 hPa | 0 mm | - | - | - |
| 1777847310 | 26.67° C | 36% | 989.1 hPa | 0 mm | - | - | - |
| 1777847011 | 27.22° C | 38% | 989.5 hPa | 0 mm | - | - | - |
| 1777846920 | 27.22° C | 38% | 989.3 hPa | 0 mm | - | - | - |
| 1777846711 | 18.33° C | 91% | 990.6 hPa | 0 mm | - | - | - |
| 1777846409 | 18.33° C | 91% | 990.6 hPa | 0 mm | - | - | - |
| 1777846110 | 27.22° C | 39% | 989.6 hPa | 0 mm | - | - | - |
| 1777845841 | 18.33° C | 91% | 990.6 hPa | 0 mm | - | - | - |
| 1777845811 | 18.33° C | 91% | 990.6 hPa | 0 mm | - | - | - |
| 1777845510 | 18.33° C | 91% | 990.6 hPa | 0 mm | - | - | - |
| 1777845210 | 27.22° C | 36% | 989.5 hPa | 0 mm | - | - | - |
| 1777844910 | 18.33° C | 91% | 990.6 hPa | 0 mm | - | - | - |
| 1777844761 | 27.22° C | 38% | 990.2 hPa | 0 mm | - | - | - |
| 1777844609 | 27.22° C | 38% | 989.8 hPa | 0 mm | - | - | - |
| 1777844311 | 18.33° C | 91% | 990.6 hPa | 0 mm | - | - | - |
| 1777844011 | 18.33° C | 91% | 990.6 hPa | 0 mm | - | - | - |
| 1777843712 | 27.22° C | 38% | 990.1 hPa | 0 mm | - | - | - |
| 1777843680 | 27.22° C | 38% | 990.1 hPa | 0 mm | - | - | - |
| 1777843409 | 27.22° C | 42% | 990.5 hPa | 0 mm | - | - | - |
* Rain latest hour (hover to see other rain measurements)
** Current wind speed in m/s (hover to see current wind gust speed)